ENNA METAR and TAF weather

Enter ICAO airport designator
Station Type Date Time Source
ENNA METAR 2022/06/26 07:20 UTC NOAA

ENNA 260720Z AUTO 34014KT 9999 NCD 13/06 Q1022 RMK WIND 1800FT 05013KT


Station Type Date Time Source
ENNA Decoded METAR 2022/06/26 07:20 UTC NOAA

Banak, Norway (ENNA) 70-04N 024-59E 8M
Jun 26, 2022 - 03:20 AM EDT / 2022.06.26 0720 UTC
Wind: from the NNW (340 degrees) at 16 MPH (14 KT):0
Visibility: greater than 7 mile(s):0
Temperature: 55 F (13 C)
Dew Point: 42 F (6 C)
Relative Humidity: 62%
Pressure (altimeter): 30.18 in. Hg (1022 hPa)
ob: ENNA 260720Z AUTO 34014KT 9999 NCD 13/06 Q1022 RMK WIND 1800FT 05013KT
cycle: 7

Station Type Date Time Source
ENNA TAF 2022/06/26 06:57 UTC NOAA

TAF TAF ENNA 260500Z 2606/2706 35015KT CAVOK
BECMG 2620/2623 18012KT

Example: see airport list